Time;durP1;ratioP1;P1;durP2;ratioP2;P2;SDS_P1;SDS_P2;PMS_P1;PMS_P2;Temp;Humidity;BMP_temperature;BMP_pressure;BME280_temperature;BME280_humidity;BME280_pressure;Samples;Min_cycle;Max_cycle;Signal;HPM_P1;HPM_P2
2024/01/04 00:01:09;;;;;;;1.20;0.90;;;;;;;7.32;100.00;96159.25;6104345;19;20003;-72
2024/01/04 00:03:09;;;;;;;0.90;0.60;;;;;;;7.25;100.00;96158.53;6103954;19;20020;-72
2024/01/04 00:05:09;;;;;;;0.60;0.60;;;;;;;7.32;100.00;96155.72;6105620;19;20419;-72
2024/01/04 00:07:11;;;;;;;2.38;0.80;;;;;;;7.35;100.00;96163.13;6105483;19;20026;-72
2024/01/04 00:09:12;;;;;;;2.05;0.60;;;;;;;7.39;100.00;96165.84;6105511;19;19999;-72
2024/01/04 00:11:13;;;;;;;0.93;0.63;;;;;;;7.43;100.00;96177.56;6105015;19;20018;-72
2024/01/04 00:13:13;;;;;;;0.82;0.60;;;;;;;7.33;100.00;96165.53;6104883;19;20515;-72
2024/01/04 00:15:13;;;;;;;1.95;0.70;;;;;;;7.26;100.00;96160.09;6105408;19;20494;-72
2024/01/04 00:17:14;;;;;;;0.60;0.60;;;;;;;7.16;100.00;96169.28;6104658;19;20489;-72
2024/01/04 00:19:14;;;;;;;2.05;0.70;;;;;;;7.13;100.00;96164.59;6102871;19;20010;-72
2024/01/04 00:21:15;;;;;;;0.60;0.60;;;;;;;7.09;100.00;96181.13;6103492;19;20006;-72
2024/01/04 00:23:15;;;;;;;0.88;0.52;;;;;;;7.06;100.00;96175.69;6104251;19;20459;-72
2024/01/04 00:25:15;;;;;;;1.00;0.50;;;;;;;7.05;100.00;96177.66;6104453;19;20021;-72
2024/01/04 00:27:16;;;;;;;1.10;0.70;;;;;;;7.01;100.00;96174.16;6104469;19;20017;-72
2024/01/04 00:29:16;;;;;;;1.38;0.60;;;;;;;6.95;100.00;96179.34;6103560;19;20007;-72
2024/01/04 00:31:16;;;;;;;0.70;0.70;;;;;;;7.00;100.00;96187.13;6105059;19;20571;-72
2024/01/04 00:33:17;;;;;;;0.88;0.80;;;;;;;7.03;100.00;96182.75;6109461;19;20020;-72
2024/01/04 00:35:17;;;;;;;1.90;0.90;;;;;;;7.00;100.00;96195.38;6110736;19;20002;-72
2024/01/04 00:37:17;;;;;;;2.55;1.00;;;;;;;7.03;100.00;96183.56;6110070;19;20003;-72
2024/01/04 00:39:18;;;;;;;1.13;0.70;;;;;;;7.12;100.00;96185.03;6110999;19;20003;-72
2024/01/04 00:41:18;;;;;;;1.70;0.80;;;;;;;7.09;100.00;96183.09;6110113;19;19999;-72
2024/01/04 00:43:18;;;;;;;0.70;0.70;;;;;;;6.99;100.00;96193.03;6109598;19;19998;-72
2024/01/04 00:45:19;;;;;;;1.27;0.63;;;;;;;7.02;100.00;96186.72;6110243;19;20011;-72
2024/01/04 00:47:19;;;;;;;2.20;0.80;;;;;;;7.08;100.00;96195.28;6110207;19;20351;-72
2024/01/04 00:49:19;;;;;;;1.20;0.70;;;;;;;7.13;100.00;96197.59;6109262;19;20013;-72
2024/01/04 00:51:20;;;;;;;2.28;0.70;;;;;;;6.99;100.00;96187.53;6110942;19;20004;-72
2024/01/04 00:53:20;;;;;;;1.48;1.10;;;;;;;6.99;100.00;96195.78;6108620;19;19995;-72
2024/01/04 00:55:20;;;;;;;2.88;0.82;;;;;;;7.00;100.00;96197.34;6110448;19;20083;-72
2024/01/04 00:57:21;;;;;;;0.70;0.70;;;;;;;6.98;100.00;96202.47;6107068;19;20004;-72
2024/01/04 00:59:21;;;;;;;0.60;0.60;;;;;;;6.99;100.00;96193.81;6110379;19;20006;-72
2024/01/04 01:01:21;;;;;;;1.02;0.70;;;;;;;7.01;100.00;96187.91;6108955;19;20091;-72
2024/01/04 01:03:22;;;;;;;0.70;0.60;;;;;;;7.02;100.00;96192.19;6109503;19;20391;-72
2024/01/04 01:05:22;;;;;;;0.75;0.60;;;;;;;7.08;100.00;96207.06;6109756;19;20064;-72
2024/01/04 01:07:22;;;;;;;1.58;0.80;;;;;;;7.03;100.00;96224.00;6109694;19;20070;-72
2024/01/04 01:09:23;;;;;;;0.55;0.55;;;;;;;7.02;100.00;96223.22;6109447;19;20543;-72
2024/01/04 01:11:23;;;;;;;0.88;0.80;;;;;;;7.03;100.00;96216.56;6110014;19;20569;-72
2024/01/04 01:13:23;;;;;;;0.82;0.75;;;;;;;7.03;100.00;96224.81;6108701;19;20015;-72
2024/01/04 01:15:24;;;;;;;2.03;0.80;;;;;;;7.07;100.00;96224.75;6109451;19;19998;-72
2024/01/04 01:17:24;;;;;;;0.60;0.60;;;;;;;7.10;100.00;96226.69;6109728;19;20015;-72
2024/01/04 01:19:24;;;;;;;2.55;1.20;;;;;;;7.06;100.00;96227.94;6110534;19;20551;-72
2024/01/04 01:21:25;;;;;;;1.67;0.68;;;;;;;7.04;100.00;96226.38;6109376;19;20003;-72
2024/01/04 01:23:25;;;;;;;1.10;0.65;;;;;;;7.08;100.00;96231.03;6107971;19;20003;-72
2024/01/04 01:25:26;;;;;;;1.52;0.60;;;;;;;7.14;100.00;96232.94;6110167;19;20260;-72
2024/01/04 01:27:26;;;;;;;0.50;0.50;;;;;;;7.13;100.00;96225.88;6107424;19;20002;-72
2024/01/04 01:29:26;;;;;;;1.23;0.70;;;;;;;7.17;100.00;96231.31;6109314;19;20006;-72
2024/01/04 01:31:26;;;;;;;0.65;0.60;;;;;;;7.15;100.00;96231.75;6108367;19;20703;-72
2024/01/04 01:33:27;;;;;;;1.33;0.90;;;;;;;7.17;100.00;96221.09;6109133;19;20006;-72
2024/01/04 01:35:27;;;;;;;1.98;0.63;;;;;;;7.15;100.00;96220.75;6109106;19;20010;-72
2024/01/04 01:37:28;;;;;;;0.98;0.73;;;;;;;7.08;100.00;96236.53;6108929;19;21113;-72
2024/01/04 01:39:28;;;;;;;1.92;0.70;;;;;;;7.05;100.00;96221.66;6109180;19;20048;-72
2024/01/04 01:41:28;;;;;;;0.60;0.60;;;;;;;7.04;100.00;96234.63;6108831;19;20435;-72
2024/01/04 01:43:28;;;;;;;1.02;0.50;;;;;;;7.03;100.00;96221.25;6105463;19;20135;-72
2024/01/04 01:45:29;;;;;;;0.88;0.70;;;;;;;7.07;100.00;96233.00;6109433;19;20003;-72
2024/01/04 01:47:29;;;;;;;0.68;0.68;;;;;;;7.02;100.00;96238.94;6105892;19;20041;-72
2024/01/04 01:49:30;;;;;;;1.48;0.60;;;;;;;6.98;100.00;96232.72;6098486;19;20010;-72
2024/01/04 01:51:30;;;;;;;2.08;0.98;;;;;;;6.83;100.00;96221.06;6108589;19;20003;-72
2024/01/04 01:53:31;;;;;;;1.20;0.80;;;;;;;6.84;100.00;96224.59;6107966;19;20002;-72
2024/01/04 01:55:31;;;;;;;2.25;0.60;;;;;;;6.78;100.00;96216.00;6108645;19;20935;-72
2024/01/04 01:57:33;;;;;;;1.10;0.60;;;;;;;6.75;100.00;96211.34;6105628;19;20006;-72
2024/01/04 01:59:33;;;;;;;0.77;0.50;;;;;;;6.72;100.00;96215.69;6106873;19;20464;-72
2024/01/04 02:01:34;;;;;;;0.60;0.60;;;;;;;6.67;100.00;96240.84;6108238;19;19999;-72
2024/01/04 02:03:35;;;;;;;1.00;1.00;;;;;;;6.68;100.00;96225.94;6106905;19;20007;-72
2024/01/04 02:05:35;;;;;;;0.60;0.60;;;;;;;6.68;100.00;96220.44;6107877;19;20013;-72
2024/01/04 02:07:36;;;;;;;1.45;0.60;;;;;;;6.66;100.00;96233.03;6106475;19;20384;-72
2024/01/04 02:09:36;;;;;;;1.70;0.55;;;;;;;6.66;100.00;96233.03;6108081;19;20096;-72
2024/01/04 02:11:36;;;;;;;2.20;0.57;;;;;;;6.66;100.00;96222.81;6108901;19;20003;-72
2024/01/04 02:13:36;;;;;;;0.52;0.52;;;;;;;6.66;100.00;96244.03;6106964;19;20007;-72
2024/01/04 02:15:37;;;;;;;5.50;0.70;;;;;;;6.66;100.00;96236.56;6107328;19;20489;-72
2024/01/04 02:17:37;;;;;;;2.15;0.65;;;;;;;6.66;100.00;96244.78;6106350;19;20420;-72
2024/01/04 02:19:38;;;;;;;0.50;0.50;;;;;;;6.69;100.00;96240.44;6106608;19;20085;-72
2024/01/04 02:21:39;;;;;;;1.40;0.65;;;;;;;6.68;100.00;96244.38;6108110;19;20741;-72
2024/01/04 02:23:39;;;;;;;0.68;0.60;;;;;;;6.69;100.00;96249.47;6106594;19;20019;-72
2024/01/04 02:25:39;;;;;;;2.42;0.60;;;;;;;6.72;100.00;96253.41;6108398;19;20002;-72
2024/01/04 02:27:39;;;;;;;0.82;0.60;;;;;;;6.83;100.00;96247.78;6108028;19;20317;-72
2024/01/04 02:29:40;;;;;;;2.13;0.65;;;;;;;6.84;100.00;96244.63;6104754;19;20348;-72
2024/01/04 02:31:43;;;;;;;0.50;0.50;;;;;;;6.80;100.00;96265.88;6108196;19;20314;-72
2024/01/04 02:33:43;;;;;;;1.05;0.60;;;;;;;6.85;100.00;96264.66;6106659;19;20013;-72
2024/01/04 02:35:44;;;;;;;2.28;0.60;;;;;;;6.77;100.00;96272.16;6106714;19;19999;-72
2024/01/04 02:37:44;;;;;;;1.17;0.70;;;;;;;6.75;100.00;96266.31;6105105;19;20384;-72
2024/01/04 02:39:44;;;;;;;1.40;0.50;;;;;;;6.70;100.00;96275.78;6106649;19;19999;-72
2024/01/04 02:41:45;;;;;;;1.90;0.50;;;;;;;6.67;100.00;96278.56;6106780;19;20002;-72
2024/01/04 02:43:45;;;;;;;0.55;0.55;;;;;;;6.64;100.00;96280.16;6106063;19;20476;-72
2024/01/04 02:45:45;;;;;;;1.10;0.70;;;;;;;6.59;100.00;96280.56;6107009;19;20086;-72
2024/01/04 02:47:46;;;;;;;2.70;0.63;;;;;;;6.64;100.00;96280.16;6102707;19;20702;-72
2024/01/04 02:49:46;;;;;;;0.90;0.60;;;;;;;6.57;100.00;96282.94;6092995;19;20051;-72
2024/01/04 02:51:46;;;;;;;0.60;0.60;;;;;;;6.52;100.00;96293.59;6092893;19;20003;-72
2024/01/04 02:53:47;;;;;;;1.92;0.75;;;;;;;6.50;100.00;96302.22;6091800;19;20608;-72
2024/01/04 02:55:47;;;;;;;0.50;0.50;;;;;;;6.51;100.00;96295.56;6091978;19;20011;-72
2024/01/04 02:57:47;;;;;;;0.50;0.50;;;;;;;6.51;100.00;96306.53;6091925;19;19995;-72
2024/01/04 02:59:48;;;;;;;0.57;0.50;;;;;;;6.53;100.00;96297.88;6092618;19;20001;-72
2024/01/04 03:01:48;;;;;;;1.77;0.70;;;;;;;6.53;100.00;96311.63;6091686;19;20002;-72
2024/01/04 03:03:55;;;;;;;0.50;0.50;;;;;;;6.50;100.00;96315.97;6091545;19;20013;-72
2024/01/04 03:05:55;;;;;;;1.27;0.50;;;;;;;6.47;100.00;96325.03;6090991;19;20630;-72
2024/01/04 03:07:55;;;;;;;0.60;0.57;;;;;;;6.46;100.00;96317.97;6090908;19;20006;-72
2024/01/04 03:09:56;;;;;;;0.50;0.50;;;;;;;6.46;100.00;96331.72;6091729;19;20009;-72
2024/01/04 03:11:56;;;;;;;0.65;0.50;;;;;;;6.44;100.00;96334.84;6091816;19;20009;-72
2024/01/04 03:13:56;;;;;;;0.68;0.60;;;;;;;6.45;100.00;96338.34;6091044;19;20615;-72
2024/01/04 03:15:57;;;;;;;0.50;0.50;;;;;;;6.46;100.00;96337.97;6091974;19;20342;-72
2024/01/04 03:17:57;;;;;;;0.52;0.50;;;;;;;6.44;100.00;96339.56;6092220;19;20528;-72
2024/01/04 03:19:57;;;;;;;2.13;0.60;;;;;;;6.45;100.00;96344.66;6091278;19;20011;-72
2024/01/04 03:21:58;;;;;;;3.25;0.50;;;;;;;6.51;100.00;96339.50;6090660;19;19998;-72
2024/01/04 03:23:58;;;;;;;0.40;0.40;;;;;;;6.51;100.00;96350.50;6090839;19;20026;-72
2024/01/04 03:25:58;;;;;;;2.42;0.90;;;;;;;6.45;100.00;96350.16;6090661;19;20006;-72
2024/01/04 03:27:58;;;;;;;0.55;0.55;;;;;;;6.42;100.00;96350.94;6091796;19;20003;-72
2024/01/04 03:29:59;;;;;;;0.47;0.47;;;;;;;6.48;100.00;96357.59;6090264;19;20455;-72
2024/01/04 03:31:59;;;;;;;1.27;0.95;;;;;;;6.56;100.00;96352.81;6091572;19;20044;-72
2024/01/04 03:33:59;;;;;;;0.70;0.70;;;;;;;6.56;100.00;96360.28;6090704;19;19999;-72
2024/01/04 03:36:00;;;;;;;1.83;0.55;;;;;;;6.53;100.00;96361.06;6091216;19;20003;-72
2024/01/04 03:38:00;;;;;;;0.50;0.50;;;;;;;6.51;100.00;96347.75;6090580;19;20003;-72
2024/01/04 03:40:00;;;;;;;0.60;0.50;;;;;;;6.51;100.00;96364.22;6092448;19;20010;-72
2024/01/04 03:42:01;;;;;;;1.15;0.50;;;;;;;6.46;100.00;96362.72;6091166;19;20017;-72
2024/01/04 03:44:01;;;;;;;1.15;0.50;;;;;;;6.48;100.00;96376.03;6090010;19;20024;-72
2024/01/04 03:46:05;;;;;;;0.50;0.50;;;;;;;6.55;100.00;96380.72;6090317;19;20340;-72
2024/01/04 03:48:06;;;;;;;0.47;0.47;;;;;;;6.51;100.00;96379.94;6089741;19;20010;-72
2024/01/04 03:50:06;;;;;;;1.70;0.65;;;;;;;6.45;100.00;96394.09;6104490;19;20455;-72
2024/01/04 03:52:07;;;;;;;0.60;0.60;;;;;;;6.45;100.00;96382.31;6104305;19;19998;-72
2024/01/04 03:54:07;;;;;;;0.90;0.90;;;;;;;6.47;100.00;96383.50;6104818;19;20006;-72
2024/01/04 03:56:07;;;;;;;0.50;0.50;;;;;;;6.46;100.00;96379.19;6103960;19;20447;-72
2024/01/04 03:58:08;;;;;;;2.33;0.60;;;;;;;6.41;100.00;96390.59;6104613;19;20855;-72
2024/01/04 04:00:09;;;;;;;0.50;0.50;;;;;;;6.43;100.00;96393.72;6104946;19;20006;-72
2024/01/04 04:02:09;;;;;;;0.50;0.50;;;;;;;6.40;100.00;96391.00;6104402;19;20002;-72
2024/01/04 04:04:09;;;;;;;0.65;0.60;;;;;;;6.37;100.00;96375.31;6104886;19;20513;-72
2024/01/04 04:06:10;;;;;;;1.42;0.60;;;;;;;6.38;100.00;96385.91;6103909;19;20010;-72
2024/01/04 04:08:10;;;;;;;0.73;0.50;;;;;;;6.44;100.00;96389.00;6110367;19;20006;-72
2024/01/04 04:10:10;;;;;;;0.50;0.50;;;;;;;6.38;100.00;96390.63;6110566;19;20040;-72
2024/01/04 04:12:11;;;;;;;0.50;0.50;;;;;;;6.36;100.00;96391.00;6108514;19;20037;-72
2024/01/04 04:14:11;;;;;;;0.50;0.50;;;;;;;6.26;100.00;96391.06;6111355;19;20332;-72
2024/01/04 04:16:11;;;;;;;0.57;0.57;;;;;;;6.27;100.00;96398.13;6109637;19;20006;-72
2024/01/04 04:18:12;;;;;;;0.50;0.50;;;;;;;6.26;100.00;96400.09;6109323;19;20019;-72
2024/01/04 04:20:12;;;;;;;0.50;0.50;;;;;;;6.34;100.00;96395.34;6109994;19;20007;-72
2024/01/04 04:22:12;;;;;;;0.85;0.63;;;;;;;6.31;100.00;96396.94;6109295;19;19998;-72
2024/01/04 04:24:13;;;;;;;1.23;0.77;;;;;;;6.30;100.00;96397.34;6109397;19;20066;-72
2024/01/04 04:26:13;;;;;;;0.80;0.80;;;;;;;6.27;100.00;96400.84;6109910;19;20003;-72
2024/01/04 04:28:13;;;;;;;0.88;0.60;;;;;;;6.23;100.00;96400.09;6109591;19;20012;-72
2024/01/04 04:30:18;;;;;;;0.68;0.68;;;;;;;6.31;100.00;96405.16;6109797;19;20346;-72
2024/01/04 04:32:18;;;;;;;1.27;0.82;;;;;;;6.28;100.00;96405.94;6109868;19;20018;-72
2024/01/04 04:34:18;;;;;;;0.60;0.60;;;;;;;6.28;100.00;96407.91;6110884;19;19991;-72
2024/01/04 04:36:19;;;;;;;0.70;0.70;;;;;;;6.24;100.00;96410.69;6110019;19;20002;-72
2024/01/04 04:38:19;;;;;;;1.00;0.68;;;;;;;6.23;100.00;96420.13;6111086;19;20010;-72
2024/01/04 04:40:19;;;;;;;1.73;0.70;;;;;;;6.22;100.00;96412.28;6109490;19;20348;-72
2024/01/04 04:42:20;;;;;;;0.60;0.60;;;;;;;6.24;100.00;96421.69;6110654;19;20007;-72
2024/01/04 04:44:20;;;;;;;0.70;0.70;;;;;;;6.23;100.00;96411.09;6109750;19;20034;-72
2024/01/04 04:46:20;;;;;;;0.60;0.60;;;;;;;6.25;100.00;96415.00;6110625;19;20808;-72
2024/01/04 04:48:21;;;;;;;0.52;0.50;;;;;;;6.27;100.00;96415.38;6108980;19;20026;-72
2024/01/04 04:50:21;;;;;;;0.57;0.57;;;;;;;6.20;100.00;96410.69;6109836;19;20033;-72
2024/01/04 04:52:21;;;;;;;1.08;0.60;;;;;;;6.18;100.00;96415.03;6108961;19;19998;-72
2024/01/04 04:54:22;;;;;;;1.40;0.55;;;;;;;6.09;100.00;96420.94;6109957;19;19994;-72
2024/01/04 04:56:22;;;;;;;1.08;0.70;;;;;;;6.06;100.00;96423.72;6110478;19;19999;-72
2024/01/04 04:58:22;;;;;;;0.50;0.50;;;;;;;6.09;100.00;96428.41;6111019;19;20351;-72
2024/01/04 05:00:22;;;;;;;0.70;0.70;;;;;;;6.08;100.00;96424.09;6109466;19;20007;-72
2024/01/04 05:02:23;;;;;;;0.88;0.70;;;;;;;6.12;100.00;96411.94;6109442;19;20010;-72
2024/01/04 05:04:23;;;;;;;0.68;0.50;;;;;;;6.07;100.00;96426.06;6110488;19;20006;-72
2024/01/04 05:06:23;;;;;;;0.75;0.52;;;;;;;6.04;100.00;96421.38;6110410;19;20014;-72
2024/01/04 05:08:24;;;;;;;0.50;0.50;;;;;;;6.10;100.00;96405.25;6109441;19;20006;-72
2024/01/04 05:10:24;;;;;;;0.50;0.50;;;;;;;6.09;100.00;96415.44;6107832;19;20464;-72
2024/01/04 05:12:24;;;;;;;1.48;0.60;;;;;;;6.09;100.00;96407.22;6108335;19;20239;-72
2024/01/04 05:14:25;;;;;;;0.60;0.60;;;;;;;6.05;100.00;96422.94;6110367;19;19999;-72
2024/01/04 05:16:25;;;;;;;0.50;0.50;;;;;;;6.07;100.00;96417.03;6110326;19;20035;-72
2024/01/04 05:18:26;;;;;;;0.60;0.60;;;;;;;5.98;100.00;96416.69;6109473;19;20033;-72
2024/01/04 05:20:26;;;;;;;1.25;0.90;;;;;;;6.00;100.00;96439.81;6109629;19;20042;-72
2024/01/04 05:22:26;;;;;;;0.73;0.70;;;;;;;5.96;100.00;96443.72;6108290;19;20013;-72
2024/01/04 05:24:27;;;;;;;0.85;0.82;;;;;;;6.00;100.00;96441.78;6110137;19;20003;-72
2024/01/04 05:26:27;;;;;;;1.38;1.08;;;;;;;5.94;100.00;96441.38;6110002;19;20010;-72
2024/01/04 05:28:27;;;;;;;1.10;0.90;;;;;;;5.92;100.00;96457.47;6109693;19;20030;-72
2024/01/04 05:30:28;;;;;;;1.40;1.10;;;;;;;5.90;100.00;96455.13;6108371;19;20029;-72
2024/01/04 05:32:28;;;;;;;2.00;1.20;;;;;;;5.89;100.00;96463.75;6108245;19;20462;-72
2024/01/04 05:34:32;;;;;;;2.33;1.00;;;;;;;5.95;100.00;96453.16;6110085;19;20009;-72
2024/01/04 05:36:32;;;;;;;1.63;1.40;;;;;;;5.99;100.00;96459.44;6109758;19;20013;-72
2024/01/04 05:38:32;;;;;;;1.63;1.13;;;;;;;6.12;100.00;96463.28;6109183;19;20006;-72
2024/01/04 05:40:32;;;;;;;2.03;1.55;;;;;;;6.11;100.00;96468.00;6108889;19;20514;-72
2024/01/04 05:42:33;;;;;;;1.52;1.27;;;;;;;6.12;100.00;96477.81;6108074;19;20002;-72
2024/01/04 05:44:33;;;;;;;0.82;0.80;;;;;;;6.14;100.00;96483.69;6109883;19;20366;-72
2024/01/04 05:46:33;;;;;;;0.80;0.80;;;;;;;6.18;100.00;96475.44;6109165;19;20808;-72
2024/01/04 05:48:34;;;;;;;2.20;0.90;;;;;;;6.11;100.00;96472.72;6108362;19;20023;-72
2024/01/04 05:50:34;;;;;;;1.27;1.00;;;;;;;6.11;100.00;96487.22;6109241;19;20003;-72
2024/01/04 05:52:34;;;;;;;1.23;1.05;;;;;;;6.18;100.00;96480.94;6107673;19;20007;-72
2024/01/04 05:54:35;;;;;;;0.73;0.70;;;;;;;6.18;100.00;96487.19;6109835;19;20041;-72
2024/01/04 05:56:35;;;;;;;0.90;0.70;;;;;;;6.06;100.00;96492.34;6108658;19;20011;-72
2024/01/04 05:58:35;;;;;;;0.60;0.60;;;;;;;6.16;100.00;96497.03;6108542;19;20010;-72
2024/01/04 06:00:35;;;;;;;0.63;0.63;;;;;;;6.17;100.00;96510.34;6109136;19;20021;-72
2024/01/04 06:02:36;;;;;;;0.60;0.60;;;;;;;6.16;100.00;96502.50;6106350;19;20006;-71
2024/01/04 06:04:36;;;;;;;1.02;0.95;;;;;;;6.17;100.00;96515.06;6109240;19;20437;-72
2024/01/04 06:06:36;;;;;;;0.70;0.70;;;;;;;6.13;100.00;96517.81;6107682;19;20070;-72
2024/01/04 06:08:37;;;;;;;0.60;0.60;;;;;;;6.13;100.00;96533.53;6109190;19;20343;-72
2024/01/04 06:10:37;;;;;;;0.70;0.70;;;;;;;6.14;100.00;96535.09;6108800;19;20012;-72
2024/01/04 06:12:37;;;;;;;0.70;0.70;;;;;;;6.15;100.00;96539.38;6107563;19;20014;-72
2024/01/04 06:14:38;;;;;;;0.60;0.60;;;;;;;6.11;100.00;96536.63;6109311;19;20013;-72
2024/01/04 06:16:39;;;;;;;0.60;0.60;;;;;;;6.07;100.00;96544.13;6106281;19;20019;-72
2024/01/04 06:18:39;;;;;;;0.80;0.80;;;;;;;6.23;100.00;96549.19;6107939;19;20019;-72
2024/01/04 06:20:40;;;;;;;0.82;0.82;;;;;;;6.16;100.00;96558.22;6108453;19;20397;-72
2024/01/04 06:22:40;;;;;;;0.90;0.90;;;;;;;6.20;100.00;96560.94;6106580;19;20014;-72
2024/01/04 06:24:40;;;;;;;1.35;1.05;;;;;;;6.19;100.00;96562.13;6101022;19;20003;-72
2024/01/04 06:26:40;;;;;;;1.05;0.90;;;;;;;6.20;100.00;96566.44;6103676;19;20538;-72
2024/01/04 06:28:41;;;;;;;0.80;0.80;;;;;;;6.31;100.00;96574.66;6107502;19;19998;-72
2024/01/04 06:30:41;;;;;;;0.88;0.88;;;;;;;6.33;100.00;96586.81;6105949;19;20023;-71
2024/01/04 06:32:41;;;;;;;1.95;0.98;;;;;;;6.27;100.00;96588.38;6106162;19;20342;-72
2024/01/04 06:34:42;;;;;;;0.90;0.90;;;;;;;6.29;100.00;96596.22;6107775;19;20013;-72
2024/01/04 06:36:42;;;;;;;1.20;1.10;;;;;;;6.32;100.00;96603.69;6106097;19;20336;-71
2024/01/04 06:38:42;;;;;;;0.80;0.80;;;;;;;6.27;100.00;96587.59;6107673;19;20011;-71
2024/01/04 06:40:43;;;;;;;2.30;1.33;;;;;;;6.20;100.00;96611.16;6107857;19;20360;-72
2024/01/04 06:42:44;;;;;;;6.43;3.30;;;;;;;6.15;100.00;96606.06;6105482;19;20463;-72
2024/01/04 06:44:46;;;;;;;3.13;2.05;;;;;;;6.09;100.00;96613.13;6107009;19;20606;-72
2024/01/04 06:46:47;;;;;;;4.85;2.85;;;;;;;6.08;100.00;96617.06;6107050;19;20376;-72
2024/01/04 06:48:47;;;;;;;3.15;1.85;;;;;;;6.06;100.00;96621.38;6096400;19;20031;-72
2024/01/04 06:50:47;;;;;;;2.22;1.67;;;;;;;6.01;100.00;96622.56;6106320;19;20006;-72
2024/01/04 06:52:48;;;;;;;2.15;1.20;;;;;;;6.01;100.00;96630.00;6104310;19;20002;-72
2024/01/04 06:54:49;;;;;;;2.10;1.20;;;;;;;6.06;100.00;96632.38;6106970;19;20015;-72
2024/01/04 06:56:49;;;;;;;2.63;1.35;;;;;;;6.12;100.00;96634.31;6104216;19;20062;-72
2024/01/04 06:58:49;;;;;;;1.27;1.10;;;;;;;6.06;100.00;96637.84;6104150;19;21043;-71
2024/01/04 07:00:50;;;;;;;1.40;1.08;;;;;;;6.02;100.00;96646.06;6106228;19;19998;-72
2024/01/04 07:02:50;;;;;;;2.35;0.98;;;;;;;6.02;100.00;96650.78;6104115;19;20443;-72
2024/01/04 07:04:50;;;;;;;1.77;1.30;;;;;;;5.89;100.00;96653.13;6103082;19;20011;-72
2024/01/04 07:06:51;;;;;;;3.30;1.70;;;;;;;5.97;100.00;96660.22;6105362;19;20006;-72
2024/01/04 07:08:51;;;;;;;2.70;1.98;;;;;;;5.98;100.00;96647.28;6105034;19;20006;-72
2024/01/04 07:10:52;;;;;;;2.72;1.50;;;;;;;5.90;100.00;96661.00;6106616;19;20007;-72
2024/01/04 07:12:52;;;;;;;1.38;1.00;;;;;;;5.88;100.00;96660.56;6103172;19;20653;-72
2024/01/04 07:14:53;;;;;;;1.88;1.08;;;;;;;5.87;100.00;96667.22;6107188;19;20025;-72
2024/01/04 07:16:53;;;;;;;1.40;0.95;;;;;;;5.87;100.00;96667.22;6103947;19;20002;-72
2024/01/04 07:18:53;;;;;;;1.35;0.93;;;;;;;5.85;100.00;96668.78;6105513;19;20054;-72
2024/01/04 07:20:54;;;;;;;2.08;1.30;;;;;;;5.83;100.00;96660.94;6106690;19;20006;-72
2024/01/04 07:22:54;;;;;;;1.70;0.95;;;;;;;5.88;100.00;96663.31;6105202;19;20026;-72
2024/01/04 07:24:56;;;;;;;1.60;1.10;;;;;;;5.93;100.00;96672.34;6105801;19;19999;-72
2024/01/04 07:26:56;;;;;;;1.83;1.40;;;;;;;5.97;100.00;96679.44;6103464;19;19998;-72
2024/01/04 07:28:57;;;;;;;1.92;1.33;;;;;;;5.94;100.00;96674.69;6106309;19;20606;-72
2024/01/04 07:30:57;;;;;;;3.30;0.93;;;;;;;5.93;100.00;96677.84;6104286;19;20016;-72
2024/01/04 07:32:58;;;;;;;2.10;1.10;;;;;;;5.95;100.00;96691.94;6103830;19;20009;-72
2024/01/04 07:34:58;;;;;;;1.63;0.80;;;;;;;6.02;100.00;96678.25;6105664;19;20500;-72
2024/01/04 07:36:58;;;;;;;0.95;0.82;;;;;;;6.08;100.00;96685.69;6102367;19;20007;-72
2024/01/04 07:38:59;;;;;;;0.70;0.70;;;;;;;6.14;100.00;96684.13;6105235;19;20074;-72
2024/01/04 07:40:59;;;;;;;0.95;0.85;;;;;;;6.11;100.00;96693.13;6102363;19;20023;-72
2024/01/04 07:42:59;;;;;;;1.10;0.90;;;;;;;6.12;100.00;96689.25;6104839;19;20104;-72
2024/01/04 07:45:00;;;;;;;3.08;1.70;;;;;;;6.16;100.00;96679.03;6104732;19;20324;-72
2024/01/04 07:47:02;;;;;;;4.82;1.40;;;;;;;6.15;100.00;96699.44;6105310;19;20006;-72
2024/01/04 07:49:06;;;;;;;1.70;1.17;;;;;;;6.16;100.00;96702.97;6098347;19;20003;-72
2024/01/04 07:51:07;;;;;;;1.00;0.90;;;;;;;6.19;100.00;96696.69;6092086;19;20021;-72
2024/01/04 07:53:07;;;;;;;1.63;1.10;;;;;;;6.25;100.00;96702.56;6089944;19;20316;-72
2024/01/04 07:55:08;;;;;;;0.75;0.75;;;;;;;6.32;100.00;96699.81;6089321;19;20474;-72
2024/01/04 07:57:09;;;;;;;2.00;1.05;;;;;;;6.33;100.00;96710.41;6087993;19;20009;-72
2024/01/04 07:59:10;;;;;;;1.50;1.20;;;;;;;6.31;100.00;96712.00;6087775;19;20015;-72
2024/01/04 08:01:10;;;;;;;3.97;1.13;;;;;;;6.31;100.00;96710.03;6090632;19;20002;-72
2024/01/04 08:03:10;;;;;;;3.35;2.00;;;;;;;6.34;100.00;96708.44;6088702;19;20011;-71
2024/01/04 08:05:13;;;;;;;1.25;1.10;;;;;;;6.30;100.00;96710.44;6091797;19;20011;-72
2024/01/04 08:07:13;;;;;;;1.13;1.00;;;;;;;6.29;100.00;96712.38;6090215;19;20003;-72
2024/01/04 08:09:13;;;;;;;1.10;1.00;;;;;;;6.27;100.00;96717.47;6090410;19;20327;-72
2024/01/04 08:11:14;;;;;;;1.75;0.95;;;;;;;6.27;100.00;96722.97;6091253;19;20219;-72
2024/01/04 08:13:16;;;;;;;1.23;0.90;;;;;;;6.27;100.00;96722.97;6089660;19;19999;-72
2024/01/04 08:15:16;;;;;;;0.80;0.80;;;;;;;6.43;100.00;96728.06;6090032;19;20019;-72
2024/01/04 08:17:16;;;;;;;3.80;1.05;;;;;;;6.43;100.00;96744.53;6089766;19;20515;-72
2024/01/04 08:19:17;;;;;;;0.95;0.90;;;;;;;6.50;100.00;96736.31;6088663;19;20006;-72
2024/01/04 08:21:18;;;;;;;7.97;1.30;;;;;;;6.48;100.00;96736.72;6090636;19;20006;-72
2024/01/04 08:23:19;;;;;;;1.75;1.30;;;;;;;6.51;100.00;96748.88;6088039;19;19999;-71
2024/01/04 08:25:19;;;;;;;4.57;1.33;;;;;;;6.52;100.00;96744.94;6089957;19;20013;-72
2024/01/04 08:27:20;;;;;;;1.48;1.17;;;;;;;6.51;100.00;96743.38;6089469;19;20319;-72
2024/01/04 08:29:20;;;;;;;1.20;1.08;;;;;;;6.44;100.00;96751.59;6090318;19;20313;-72
2024/01/04 08:31:20;;;;;;;1.35;1.10;;;;;;;6.45;100.00;96736.69;6090359;19;20033;-71
2024/01/04 08:33:20;;;;;;;1.20;1.10;;;;;;;6.47;100.00;96742.59;6088038;19;20072;-72
2024/01/04 08:35:21;;;;;;;1.38;1.10;;;;;;;6.41;100.00;96747.69;6089515;19;20014;-72
2024/01/04 08:37:21;;;;;;;1.70;1.27;;;;;;;6.38;100.00;96750.44;6090557;19;20378;-72
2024/01/04 08:39:21;;;;;;;1.90;1.20;;;;;;;6.38;100.00;96758.69;6089674;19;20075;-72
2024/01/04 08:41:22;;;;;;;1.48;1.20;;;;;;;6.38;100.00;96759.47;6088752;19;20019;-72
2024/01/04 08:43:22;;;;;;;1.80;1.23;;;;;;;6.40;100.00;96765.34;6088291;19;20032;-72
2024/01/04 08:45:23;;;;;;;2.30;1.48;;;;;;;6.36;100.00;96763.78;6090250;19;20003;-72
2024/01/04 08:47:23;;;;;;;4.18;2.42;;;;;;;6.36;100.00;96774.75;6088316;19;20345;-72
2024/01/04 08:49:24;;;;;;;3.10;1.50;;;;;;;6.39;100.00;96788.50;6098204;19;20088;-72
2024/01/04 08:51:25;;;;;;;4.35;2.35;;;;;;;6.44;100.00;96779.09;6104646;19;20429;-72
2024/01/04 08:53:25;;;;;;;5.35;2.00;;;;;;;6.42;100.00;96775.94;6107189;19;20015;-72
2024/01/04 08:55:26;;;;;;;1.67;1.40;;;;;;;6.46;100.00;96783.03;6109582;19;20030;-72
2024/01/04 08:57:26;;;;;;;2.35;1.38;;;;;;;6.44;100.00;96788.09;6108749;19;20019;-72
2024/01/04 08:59:26;;;;;;;1.90;1.55;;;;;;;6.45;100.00;96784.22;6108912;19;20011;-72
2024/01/04 09:01:27;;;;;;;1.73;1.45;;;;;;;6.50;100.00;96783.00;6108745;19;19999;-72
2024/01/04 09:03:27;;;;;;;3.15;1.60;;;;;;;6.47;100.00;96792.06;6108319;19;19995;-72
2024/01/04 09:05:27;;;;;;;1.55;1.30;;;;;;;6.52;100.00;96799.88;6109516;19;20844;-72
2024/01/04 09:07:27;;;;;;;2.10;1.40;;;;;;;6.47;100.00;96800.28;6108579;19;20010;-72
2024/01/04 09:09:28;;;;;;;2.55;1.35;;;;;;;6.57;100.00;96798.72;6108843;19;20006;-72
2024/01/04 09:11:28;;;;;;;1.98;1.40;;;;;;;6.53;100.00;96814.41;6108927;19;20954;-72
2024/01/04 09:13:29;;;;;;;2.08;1.52;;;;;;;6.46;100.00;96820.69;6108180;19;20006;-72
2024/01/04 09:15:29;;;;;;;1.60;1.40;;;;;;;6.42;100.00;96825.41;6108862;19;20027;-72
2024/01/04 09:17:30;;;;;;;2.22;1.35;;;;;;;6.44;100.00;96828.53;6109391;19;20318;-72
2024/01/04 09:19:30;;;;;;;1.65;1.40;;;;;;;6.39;100.00;96832.47;6107119;19;20007;-72
2024/01/04 09:21:31;;;;;;;1.58;1.33;;;;;;;6.34;100.00;96838.34;6108603;19;20333;-72
2024/01/04 09:23:31;;;;;;;1.23;1.13;;;;;;;6.29;100.00;96860.72;6107995;19;20007;-72
2024/01/04 09:25:31;;;;;;;3.58;1.70;;;;;;;6.20;100.00;96857.53;6109256;19;19999;-72
2024/01/04 09:27:31;;;;;;;3.70;1.98;;;;;;;6.13;100.00;96861.06;6107958;19;20006;-72